sensor_id;sensor_type;location;lat;lon;timestamp;P1;durP1;ratioP1;P2;durP2;ratioP2
61015;SDS011;46902;52.920;6.536;2023-05-13T00:01:05;11.73;;;5.05;;
61015;SDS011;46902;52.920;6.536;2023-05-13T00:03:31;8.98;;;5.63;;
61015;SDS011;46902;52.920;6.536;2023-05-13T00:05:57;7.15;;;4.80;;
61015;SDS011;46902;52.920;6.536;2023-05-13T00:08:23;8.48;;;5.05;;
61015;SDS011;46902;52.920;6.536;2023-05-13T00:10:48;10.30;;;5.07;;
61015;SDS011;46902;52.920;6.536;2023-05-13T00:13:14;10.20;;;5.18;;
61015;SDS011;46902;52.920;6.536;2023-05-13T00:15:40;9.80;;;4.93;;
61015;SDS011;46902;52.920;6.536;2023-05-13T00:18:06;8.60;;;4.85;;
61015;SDS011;46902;52.920;6.536;2023-05-13T00:20:31;10.07;;;5.00;;
61015;SDS011;46902;52.920;6.536;2023-05-13T00:22:57;7.40;;;5.20;;
61015;SDS011;46902;52.920;6.536;2023-05-13T00:25:23;7.93;;;5.03;;
61015;SDS011;46902;52.920;6.536;2023-05-13T00:27:48;8.30;;;5.35;;
61015;SDS011;46902;52.920;6.536;2023-05-13T00:30:14;8.55;;;5.07;;
61015;SDS011;46902;52.920;6.536;2023-05-13T00:32:39;8.05;;;5.40;;
61015;SDS011;46902;52.920;6.536;2023-05-13T00:35:05;8.90;;;5.50;;
61015;SDS011;46902;52.920;6.536;2023-05-13T00:37:31;11.70;;;5.88;;
61015;SDS011;46902;52.920;6.536;2023-05-13T00:39:56;8.82;;;5.80;;
61015;SDS011;46902;52.920;6.536;2023-05-13T00:42:23;8.77;;;5.50;;
61015;SDS011;46902;52.920;6.536;2023-05-13T00:44:49;9.80;;;5.57;;
61015;SDS011;46902;52.920;6.536;2023-05-13T00:47:15;7.90;;;5.18;;
61015;SDS011;46902;52.920;6.536;2023-05-13T00:49:42;8.98;;;5.30;;
61015;SDS011;46902;52.920;6.536;2023-05-13T00:52:07;8.00;;;5.53;;
61015;SDS011;46902;52.920;6.536;2023-05-13T00:54:33;9.65;;;5.80;;
61015;SDS011;46902;52.920;6.536;2023-05-13T00:56:59;10.13;;;5.80;;
61015;SDS011;46902;52.920;6.536;2023-05-13T00:59:25;7.47;;;5.25;;
61015;SDS011;46902;52.920;6.536;2023-05-13T01:02:08;7.25;;;5.25;;
61015;SDS011;46902;52.920;6.536;2023-05-13T01:04:43;8.73;;;5.72;;
61015;SDS011;46902;52.920;6.536;2023-05-13T01:12:53;10.98;;;5.72;;
61015;SDS011;46902;52.920;6.536;2023-05-13T01:15:24;9.57;;;5.55;;
61015;SDS011;46902;52.920;6.536;2023-05-13T01:18:12;9.45;;;5.93;;
61015;SDS011;46902;52.920;6.536;2023-05-13T01:20:42;9.13;;;5.78;;
61015;SDS011;46902;52.920;6.536;2023-05-13T01:23:09;7.45;;;5.50;;
61015;SDS011;46902;52.920;6.536;2023-05-13T01:25:36;8.88;;;5.63;;
61015;SDS011;46902;52.920;6.536;2023-05-13T01:28:03;11.32;;;5.97;;
61015;SDS011;46902;52.920;6.536;2023-05-13T01:30:30;11.80;;;5.20;;
61015;SDS011;46902;52.920;6.536;2023-05-13T01:32:55;7.63;;;5.32;;
61015;SDS011;46902;52.920;6.536;2023-05-13T01:35:22;7.18;;;5.43;;
61015;SDS011;46902;52.920;6.536;2023-05-13T01:37:49;9.95;;;5.90;;
61015;SDS011;46902;52.920;6.536;2023-05-13T01:40:15;9.93;;;5.78;;
61015;SDS011;46902;52.920;6.536;2023-05-13T01:42:41;9.68;;;6.30;;
61015;SDS011;46902;52.920;6.536;2023-05-13T01:45:07;14.02;;;6.03;;
61015;SDS011;46902;52.920;6.536;2023-05-13T01:47:33;8.95;;;5.60;;
61015;SDS011;46902;52.920;6.536;2023-05-13T01:49:59;11.57;;;5.70;;
61015;SDS011;46902;52.920;6.536;2023-05-13T01:52:24;10.00;;;5.95;;
61015;SDS011;46902;52.920;6.536;2023-05-13T01:54:50;11.65;;;6.32;;
61015;SDS011;46902;52.920;6.536;2023-05-13T01:57:15;10.30;;;6.07;;
61015;SDS011;46902;52.920;6.536;2023-05-13T01:59:41;9.30;;;6.20;;
61015;SDS011;46902;52.920;6.536;2023-05-13T02:02:07;10.30;;;6.25;;
61015;SDS011;46902;52.920;6.536;2023-05-13T02:04:32;8.73;;;6.28;;
61015;SDS011;46902;52.920;6.536;2023-05-13T02:06:58;9.40;;;6.70;;
61015;SDS011;46902;52.920;6.536;2023-05-13T02:09:23;9.40;;;6.57;;
61015;SDS011;46902;52.920;6.536;2023-05-13T02:11:49;7.70;;;5.93;;
61015;SDS011;46902;52.920;6.536;2023-05-13T02:14:15;7.35;;;6.53;;
61015;SDS011;46902;52.920;6.536;2023-05-13T02:16:41;9.85;;;6.35;;
61015;SDS011;46902;52.920;6.536;2023-05-13T02:19:06;10.40;;;6.72;;
61015;SDS011;46902;52.920;6.536;2023-05-13T02:21:32;8.43;;;6.55;;
61015;SDS011;46902;52.920;6.536;2023-05-13T02:23:58;13.57;;;6.68;;
61015;SDS011;46902;52.920;6.536;2023-05-13T02:26:23;12.68;;;7.07;;
61015;SDS011;46902;52.920;6.536;2023-05-13T02:28:49;11.10;;;6.53;;
61015;SDS011;46902;52.920;6.536;2023-05-13T02:31:15;13.02;;;6.60;;
61015;SDS011;46902;52.920;6.536;2023-05-13T02:33:40;10.32;;;6.25;;
61015;SDS011;46902;52.920;6.536;2023-05-13T02:36:06;10.05;;;7.10;;
61015;SDS011;46902;52.920;6.536;2023-05-13T02:38:32;10.25;;;7.53;;
61015;SDS011;46902;52.920;6.536;2023-05-13T02:40:59;10.23;;;6.80;;
61015;SDS011;46902;52.920;6.536;2023-05-13T02:43:25;11.23;;;7.25;;
61015;SDS011;46902;52.920;6.536;2023-05-13T02:45:51;10.23;;;6.97;;
61015;SDS011;46902;52.920;6.536;2023-05-13T02:48:17;12.27;;;7.82;;
61015;SDS011;46902;52.920;6.536;2023-05-13T02:50:43;10.07;;;7.75;;
61015;SDS011;46902;52.920;6.536;2023-05-13T02:53:08;9.43;;;7.43;;
61015;SDS011;46902;52.920;6.536;2023-05-13T02:55:34;12.02;;;7.10;;
61015;SDS011;46902;52.920;6.536;2023-05-13T02:58:00;12.32;;;7.80;;
61015;SDS011;46902;52.920;6.536;2023-05-13T03:00:25;11.57;;;7.40;;
61015;SDS011;46902;52.920;6.536;2023-05-13T03:02:51;10.27;;;7.55;;
61015;SDS011;46902;52.920;6.536;2023-05-13T03:05:16;11.50;;;8.57;;
61015;SDS011;46902;52.920;6.536;2023-05-13T03:07:42;16.73;;;8.80;;
61015;SDS011;46902;52.920;6.536;2023-05-13T03:10:08;12.70;;;8.15;;
61015;SDS011;46902;52.920;6.536;2023-05-13T03:12:33;11.23;;;8.00;;
61015;SDS011;46902;52.920;6.536;2023-05-13T03:14:59;10.85;;;8.32;;
61015;SDS011;46902;52.920;6.536;2023-05-13T03:17:25;13.05;;;8.38;;
61015;SDS011;46902;52.920;6.536;2023-05-13T03:19:50;14.40;;;8.35;;
61015;SDS011;46902;52.920;6.536;2023-05-13T03:22:16;14.10;;;8.38;;
61015;SDS011;46902;52.920;6.536;2023-05-13T03:24:42;11.82;;;8.93;;
61015;SDS011;46902;52.920;6.536;2023-05-13T03:27:08;11.18;;;7.85;;
61015;SDS011;46902;52.920;6.536;2023-05-13T03:29:34;11.95;;;8.35;;
61015;SDS011;46902;52.920;6.536;2023-05-13T03:31:59;15.18;;;8.95;;
61015;SDS011;46902;52.920;6.536;2023-05-13T03:34:25;14.23;;;9.18;;
61015;SDS011;46902;52.920;6.536;2023-05-13T03:36:50;11.23;;;8.80;;
61015;SDS011;46902;52.920;6.536;2023-05-13T03:39:16;11.93;;;8.60;;
61015;SDS011;46902;52.920;6.536;2023-05-13T03:41:42;19.30;;;9.00;;
61015;SDS011;46902;52.920;6.536;2023-05-13T03:44:08;10.52;;;9.32;;
61015;SDS011;46902;52.920;6.536;2023-05-13T03:46:33;11.68;;;8.90;;
61015;SDS011;46902;52.920;6.536;2023-05-13T03:48:59;12.90;;;8.25;;
61015;SDS011;46902;52.920;6.536;2023-05-13T03:51:24;10.98;;;8.85;;
61015;SDS011;46902;52.920;6.536;2023-05-13T03:53:50;13.23;;;9.07;;
61015;SDS011;46902;52.920;6.536;2023-05-13T03:56:16;14.02;;;9.02;;
61015;SDS011;46902;52.920;6.536;2023-05-13T03:58:41;11.02;;;8.52;;
61015;SDS011;46902;52.920;6.536;2023-05-13T04:01:07;10.68;;;9.45;;
61015;SDS011;46902;52.920;6.536;2023-05-13T04:03:33;11.75;;;8.90;;
61015;SDS011;46902;52.920;6.536;2023-05-13T04:05:58;15.10;;;9.77;;
61015;SDS011;46902;52.920;6.536;2023-05-13T04:08:25;12.05;;;8.88;;
61015;SDS011;46902;52.920;6.536;2023-05-13T04:10:51;11.40;;;9.50;;
61015;SDS011;46902;52.920;6.536;2023-05-13T04:13:17;13.73;;;9.25;;
61015;SDS011;46902;52.920;6.536;2023-05-13T04:15:43;15.80;;;9.55;;
61015;SDS011;46902;52.920;6.536;2023-05-13T04:18:09;17.27;;;9.65;;
61015;SDS011;46902;52.920;6.536;2023-05-13T04:20:38;12.90;;;9.65;;
61015;SDS011;46902;52.920;6.536;2023-05-13T04:23:03;14.05;;;9.90;;
61015;SDS011;46902;52.920;6.536;2023-05-13T04:25:29;14.80;;;9.80;;
61015;SDS011;46902;52.920;6.536;2023-05-13T04:27:55;11.55;;;9.40;;
61015;SDS011;46902;52.920;6.536;2023-05-13T04:30:21;13.70;;;9.90;;
61015;SDS011;46902;52.920;6.536;2023-05-13T04:32:47;11.80;;;9.13;;
61015;SDS011;46902;52.920;6.536;2023-05-13T04:35:12;11.48;;;9.63;;
61015;SDS011;46902;52.920;6.536;2023-05-13T04:37:38;15.00;;;9.30;;
61015;SDS011;46902;52.920;6.536;2023-05-13T04:40:04;15.23;;;9.35;;
61015;SDS011;46902;52.920;6.536;2023-05-13T04:42:30;12.25;;;9.48;;
61015;SDS011;46902;52.920;6.536;2023-05-13T04:44:56;11.68;;;8.70;;
61015;SDS011;46902;52.920;6.536;2023-05-13T04:47:22;14.77;;;9.32;;
61015;SDS011;46902;52.920;6.536;2023-05-13T04:49:47;15.15;;;9.75;;
61015;SDS011;46902;52.920;6.536;2023-05-13T04:52:13;12.93;;;9.43;;
61015;SDS011;46902;52.920;6.536;2023-05-13T04:54:39;12.75;;;9.15;;
61015;SDS011;46902;52.920;6.536;2023-05-13T04:57:04;14.30;;;8.75;;
61015;SDS011;46902;52.920;6.536;2023-05-13T04:59:31;10.90;;;9.25;;
61015;SDS011;46902;52.920;6.536;2023-05-13T05:01:57;10.95;;;8.77;;
61015;SDS011;46902;52.920;6.536;2023-05-13T05:04:23;11.90;;;9.10;;
61015;SDS011;46902;52.920;6.536;2023-05-13T05:06:49;15.02;;;9.15;;
61015;SDS011;46902;52.920;6.536;2023-05-13T05:09:15;13.80;;;9.82;;
61015;SDS011;46902;52.920;6.536;2023-05-13T05:11:41;12.68;;;8.52;;
61015;SDS011;46902;52.920;6.536;2023-05-13T05:14:07;16.08;;;8.77;;
61015;SDS011;46902;52.920;6.536;2023-05-13T05:16:33;13.70;;;9.30;;
61015;SDS011;46902;52.920;6.536;2023-05-13T05:18:58;13.05;;;8.65;;
61015;SDS011;46902;52.920;6.536;2023-05-13T05:21:24;11.73;;;9.10;;
61015;SDS011;46902;52.920;6.536;2023-05-13T05:23:49;13.98;;;8.63;;
61015;SDS011;46902;52.920;6.536;2023-05-13T05:26:15;12.10;;;8.43;;
61015;SDS011;46902;52.920;6.536;2023-05-13T05:28:41;10.80;;;8.32;;
61015;SDS011;46902;52.920;6.536;2023-05-13T05:31:07;13.25;;;7.88;;
61015;SDS011;46902;52.920;6.536;2023-05-13T05:33:34;16.02;;;8.82;;
61015;SDS011;46902;52.920;6.536;2023-05-13T05:36:00;9.27;;;8.23;;
61015;SDS011;46902;52.920;6.536;2023-05-13T05:38:25;12.98;;;8.05;;
61015;SDS011;46902;52.920;6.536;2023-05-13T05:40:51;12.82;;;8.57;;
61015;SDS011;46902;52.920;6.536;2023-05-13T05:43:17;11.40;;;8.35;;
61015;SDS011;46902;52.920;6.536;2023-05-13T05:45:43;15.27;;;7.43;;
61015;SDS011;46902;52.920;6.536;2023-05-13T05:48:09;13.32;;;8.30;;
61015;SDS011;46902;52.920;6.536;2023-05-13T05:50:35;10.40;;;7.75;;
61015;SDS011;46902;52.920;6.536;2023-05-13T05:53:01;13.30;;;7.68;;
61015;SDS011;46902;52.920;6.536;2023-05-13T05:55:27;14.02;;;7.72;;
61015;SDS011;46902;52.920;6.536;2023-05-13T05:57:53;11.88;;;8.05;;
61015;SDS011;46902;52.920;6.536;2023-05-13T06:00:20;15.88;;;7.80;;
61015;SDS011;46902;52.920;6.536;2023-05-13T06:02:45;11.73;;;7.75;;
61015;SDS011;46902;52.920;6.536;2023-05-13T06:05:12;17.50;;;8.13;;
61015;SDS011;46902;52.920;6.536;2023-05-13T06:07:39;13.25;;;8.07;;
61015;SDS011;46902;52.920;6.536;2023-05-13T06:10:05;12.55;;;7.30;;
61015;SDS011;46902;52.920;6.536;2023-05-13T06:12:31;11.23;;;7.65;;
61015;SDS011;46902;52.920;6.536;2023-05-13T06:14:57;13.00;;;7.28;;
61015;SDS011;46902;52.920;6.536;2023-05-13T06:17:23;14.57;;;7.88;;
61015;SDS011;46902;52.920;6.536;2023-05-13T06:19:49;13.60;;;7.63;;
61015;SDS011;46902;52.920;6.536;2023-05-13T06:22:15;11.55;;;6.80;;
61015;SDS011;46902;52.920;6.536;2023-05-13T06:24:40;12.35;;;7.13;;
61015;SDS011;46902;52.920;6.536;2023-05-13T06:27:09;12.55;;;7.07;;
61015;SDS011;46902;52.920;6.536;2023-05-13T06:29:36;10.30;;;7.35;;
61015;SDS011;46902;52.920;6.536;2023-05-13T06:32:01;10.68;;;7.00;;
61015;SDS011;46902;52.920;6.536;2023-05-13T06:34:27;16.60;;;7.65;;
61015;SDS011;46902;52.920;6.536;2023-05-13T06:36:53;11.90;;;6.88;;
61015;SDS011;46902;52.920;6.536;2023-05-13T06:39:18;11.15;;;7.60;;
61015;SDS011;46902;52.920;6.536;2023-05-13T06:41:44;11.02;;;6.65;;
61015;SDS011;46902;52.920;6.536;2023-05-13T06:44:10;10.70;;;6.50;;
61015;SDS011;46902;52.920;6.536;2023-05-13T06:46:35;9.18;;;7.15;;
61015;SDS011;46902;52.920;6.536;2023-05-13T06:49:01;8.35;;;6.70;;
61015;SDS011;46902;52.920;6.536;2023-05-13T06:51:27;11.65;;;6.22;;
61015;SDS011;46902;52.920;6.536;2023-05-13T06:53:53;9.88;;;7.22;;
61015;SDS011;46902;52.920;6.536;2023-05-13T06:56:19;9.57;;;6.28;;
61015;SDS011;46902;52.920;6.536;2023-05-13T06:58:51;9.32;;;6.50;;
61015;SDS011;46902;52.920;6.536;2023-05-13T07:01:17;10.40;;;7.22;;
61015;SDS011;46902;52.920;6.536;2023-05-13T07:03:43;12.60;;;7.10;;
61015;SDS011;46902;52.920;6.536;2023-05-13T07:06:09;11.60;;;6.68;;
61015;SDS011;46902;52.920;6.536;2023-05-13T07:08:35;10.60;;;7.00;;
61015;SDS011;46902;52.920;6.536;2023-05-13T07:11:01;11.13;;;6.78;;
61015;SDS011;46902;52.920;6.536;2023-05-13T07:13:27;11.13;;;6.88;;
61015;SDS011;46902;52.920;6.536;2023-05-13T07:15:54;11.43;;;6.80;;
61015;SDS011;46902;52.920;6.536;2023-05-13T07:18:19;12.13;;;6.93;;
61015;SDS011;46902;52.920;6.536;2023-05-13T07:20:45;8.50;;;6.55;;
61015;SDS011;46902;52.920;6.536;2023-05-13T07:23:10;14.10;;;7.20;;
61015;SDS011;46902;52.920;6.536;2023-05-13T07:25:36;11.13;;;6.53;;
61015;SDS011;46902;52.920;6.536;2023-05-13T07:28:02;12.50;;;6.60;;
61015;SDS011;46902;52.920;6.536;2023-05-13T07:30:28;10.45;;;6.55;;
61015;SDS011;46902;52.920;6.536;2023-05-13T07:32:54;12.35;;;6.40;;
61015;SDS011;46902;52.920;6.536;2023-05-13T07:35:19;12.55;;;6.30;;
61015;SDS011;46902;52.920;6.536;2023-05-13T07:37:45;10.07;;;6.45;;
61015;SDS011;46902;52.920;6.536;2023-05-13T07:40:11;10.93;;;7.63;;
61015;SDS011;46902;52.920;6.536;2023-05-13T07:42:38;10.73;;;5.85;;
61015;SDS011;46902;52.920;6.536;2023-05-13T07:45:04;8.15;;;5.95;;
61015;SDS011;46902;52.920;6.536;2023-05-13T07:47:30;9.00;;;6.82;;
61015;SDS011;46902;52.920;6.536;2023-05-13T07:49:57;14.57;;;5.97;;
61015;SDS011;46902;52.920;6.536;2023-05-13T07:52:23;9.80;;;6.80;;
61015;SDS011;46902;52.920;6.536;2023-05-13T07:54:48;11.93;;;5.65;;
61015;SDS011;46902;52.920;6.536;2023-05-13T07:57:14;9.60;;;5.50;;
61015;SDS011;46902;52.920;6.536;2023-05-13T07:59:40;11.32;;;5.80;;
61015;SDS011;46902;52.920;6.536;2023-05-13T08:02:05;8.82;;;4.80;;
61015;SDS011;46902;52.920;6.536;2023-05-13T08:04:32;8.15;;;4.50;;
61015;SDS011;46902;52.920;6.536;2023-05-13T08:06:59;7.88;;;4.20;;
61015;SDS011;46902;52.920;6.536;2023-05-13T08:09:25;9.43;;;4.10;;
61015;SDS011;46902;52.920;6.536;2023-05-13T08:11:51;12.52;;;4.60;;
61015;SDS011;46902;52.920;6.536;2023-05-13T08:14:16;8.95;;;4.25;;
61015;SDS011;46902;52.920;6.536;2023-05-13T08:16:42;7.40;;;3.50;;
61015;SDS011;46902;52.920;6.536;2023-05-13T08:19:08;10.57;;;4.28;;
61015;SDS011;46902;52.920;6.536;2023-05-13T08:21:33;7.78;;;3.80;;
61015;SDS011;46902;52.920;6.536;2023-05-13T08:23:59;10.30;;;3.80;;
61015;SDS011;46902;52.920;6.536;2023-05-13T08:26:25;13.32;;;4.13;;
61015;SDS011;46902;52.920;6.536;2023-05-13T08:28:51;11.45;;;3.85;;
61015;SDS011;46902;52.920;6.536;2023-05-13T08:31:16;12.27;;;3.08;;
61015;SDS011;46902;52.920;6.536;2023-05-13T08:33:42;9.15;;;3.38;;
61015;SDS011;46902;52.920;6.536;2023-05-13T08:36:10;8.38;;;2.90;;
61015;SDS011;46902;52.920;6.536;2023-05-13T08:38:35;5.57;;;3.20;;
61015;SDS011;46902;52.920;6.536;2023-05-13T08:41:04;28.90;;;3.78;;
61015;SDS011;46902;52.920;6.536;2023-05-13T08:43:31;8.07;;;3.10;;
61015;SDS011;46902;52.920;6.536;2023-05-13T08:45:57;10.13;;;3.50;;
61015;SDS011;46902;52.920;6.536;2023-05-13T08:48:27;10.27;;;3.45;;
61015;SDS011;46902;52.920;6.536;2023-05-13T08:50:53;8.50;;;3.10;;
61015;SDS011;46902;52.920;6.536;2023-05-13T08:53:20;7.85;;;3.05;;
61015;SDS011;46902;52.920;6.536;2023-05-13T08:55:49;10.50;;;3.08;;
61015;SDS011;46902;52.920;6.536;2023-05-13T08:58:15;7.38;;;2.97;;
61015;SDS011;46902;52.920;6.536;2023-05-13T09:00:40;8.55;;;3.22;;
61015;SDS011;46902;52.920;6.536;2023-05-13T09:03:07;7.32;;;2.92;;
61015;SDS011;46902;52.920;6.536;2023-05-13T09:05:34;8.02;;;2.70;;
61015;SDS011;46902;52.920;6.536;2023-05-13T09:08:01;6.95;;;3.40;;
61015;SDS011;46902;52.920;6.536;2023-05-13T09:10:32;5.47;;;3.10;;
61015;SDS011;46902;52.920;6.536;2023-05-13T09:12:58;9.50;;;3.25;;
61015;SDS011;46902;52.920;6.536;2023-05-13T09:15:25;5.25;;;2.95;;
61015;SDS011;46902;52.920;6.536;2023-05-13T09:17:53;6.93;;;2.80;;
61015;SDS011;46902;52.920;6.536;2023-05-13T09:20:31;7.88;;;3.00;;
61015;SDS011;46902;52.920;6.536;2023-05-13T09:25:28;9.55;;;3.03;;
61015;SDS011;46902;52.920;6.536;2023-05-13T09:27:55;6.72;;;2.60;;
61015;SDS011;46902;52.920;6.536;2023-05-13T09:30:26;7.57;;;2.72;;
61015;SDS011;46902;52.920;6.536;2023-05-13T09:35:29;5.95;;;2.40;;
61015;SDS011;46902;52.920;6.536;2023-05-13T09:37:56;7.40;;;2.40;;
61015;SDS011;46902;52.920;6.536;2023-05-13T09:40:22;8.48;;;2.30;;
61015;SDS011;46902;52.920;6.536;2023-05-13T09:42:47;6.55;;;2.60;;
61015;SDS011;46902;52.920;6.536;2023-05-13T09:45:14;9.27;;;3.08;;
61015;SDS011;46902;52.920;6.536;2023-05-13T09:47:41;9.50;;;2.70;;
61015;SDS011;46902;52.920;6.536;2023-05-13T09:50:07;7.47;;;2.70;;
61015;SDS011;46902;52.920;6.536;2023-05-13T09:52:34;7.38;;;2.80;;
61015;SDS011;46902;52.920;6.536;2023-05-13T09:55:01;10.82;;;2.55;;
61015;SDS011;46902;52.920;6.536;2023-05-13T09:57:30;11.52;;;2.65;;
61015;SDS011;46902;52.920;6.536;2023-05-13T10:00:00;8.50;;;2.50;;
61015;SDS011;46902;52.920;6.536;2023-05-13T10:02:29;11.10;;;2.40;;
61015;SDS011;46902;52.920;6.536;2023-05-13T10:04:55;6.80;;;2.50;;
61015;SDS011;46902;52.920;6.536;2023-05-13T10:07:22;28.95;;;3.17;;
61015;SDS011;46902;52.920;6.536;2023-05-13T10:09:53;4.68;;;2.40;;
61015;SDS011;46902;52.920;6.536;2023-05-13T10:12:25;4.38;;;2.45;;
61015;SDS011;46902;52.920;6.536;2023-05-13T10:14:52;8.43;;;2.35;;
61015;SDS011;46902;52.920;6.536;2023-05-13T10:17:19;8.00;;;2.65;;
61015;SDS011;46902;52.920;6.536;2023-05-13T10:19:47;5.20;;;2.78;;
61015;SDS011;46902;52.920;6.536;2023-05-13T10:22:24;7.30;;;2.55;;
61015;SDS011;46902;52.920;6.536;2023-05-13T10:24:54;9.63;;;2.83;;
61015;SDS011;46902;52.920;6.536;2023-05-13T10:27:22;4.07;;;2.38;;
61015;SDS011;46902;52.920;6.536;2023-05-13T10:29:51;10.07;;;2.13;;
61015;SDS011;46902;52.920;6.536;2023-05-13T10:32:18;8.45;;;2.47;;
61015;SDS011;46902;52.920;6.536;2023-05-13T10:34:46;10.70;;;2.95;;
61015;SDS011;46902;52.920;6.536;2023-05-13T10:37:32;6.90;;;2.38;;
61015;SDS011;46902;52.920;6.536;2023-05-13T10:40:24;5.47;;;2.40;;
61015;SDS011;46902;52.920;6.536;2023-05-13T10:45:38;7.32;;;2.40;;
61015;SDS011;46902;52.920;6.536;2023-05-13T10:48:07;7.10;;;2.53;;
61015;SDS011;46902;52.920;6.536;2023-05-13T10:50:36;10.18;;;2.83;;
61015;SDS011;46902;52.920;6.536;2023-05-13T10:53:08;8.00;;;2.55;;
61015;SDS011;46902;52.920;6.536;2023-05-13T10:55:44;7.78;;;3.08;;
61015;SDS011;46902;52.920;6.536;2023-05-13T10:58:16;4.97;;;2.28;;
61015;SDS011;46902;52.920;6.536;2023-05-13T11:00:43;7.57;;;2.85;;
61015;SDS011;46902;52.920;6.536;2023-05-13T11:03:13;9.35;;;2.75;;
61015;SDS011;46902;52.920;6.536;2023-05-13T11:05:40;7.10;;;2.75;;
61015;SDS011;46902;52.920;6.536;2023-05-13T11:08:08;9.35;;;2.55;;
61015;SDS011;46902;52.920;6.536;2023-05-13T11:10:35;9.48;;;2.50;;
61015;SDS011;46902;52.920;6.536;2023-05-13T11:13:06;9.05;;;2.67;;
61015;SDS011;46902;52.920;6.536;2023-05-13T11:15:42;10.95;;;2.60;;
61015;SDS011;46902;52.920;6.536;2023-05-13T11:18:10;7.97;;;2.50;;
61015;SDS011;46902;52.920;6.536;2023-05-13T11:20:36;8.70;;;2.33;;
61015;SDS011;46902;52.920;6.536;2023-05-13T11:23:02;10.18;;;2.25;;
61015;SDS011;46902;52.920;6.536;2023-05-13T11:25:28;8.52;;;2.38;;
61015;SDS011;46902;52.920;6.536;2023-05-13T11:27:54;4.93;;;1.92;;
61015;SDS011;46902;52.920;6.536;2023-05-13T11:30:20;6.03;;;2.08;;
61015;SDS011;46902;52.920;6.536;2023-05-13T11:37:46;9.23;;;2.05;;
61015;SDS011;46902;52.920;6.536;2023-05-13T11:40:32;4.70;;;1.90;;
61015;SDS011;46902;52.920;6.536;2023-05-13T11:42:59;7.32;;;2.05;;
61015;SDS011;46902;52.920;6.536;2023-05-13T11:45:25;8.13;;;2.03;;
61015;SDS011;46902;52.920;6.536;2023-05-13T11:47:52;5.60;;;2.40;;
61015;SDS011;46902;52.920;6.536;2023-05-13T11:50:28;9.05;;;2.13;;
61015;SDS011;46902;52.920;6.536;2023-05-13T11:52:56;8.05;;;1.92;;
61015;SDS011;46902;52.920;6.536;2023-05-13T11:55:24;5.75;;;1.88;;
61015;SDS011;46902;52.920;6.536;2023-05-13T11:57:51;6.15;;;1.80;;
61015;SDS011;46902;52.920;6.536;2023-05-13T12:00:23;8.85;;;2.00;;
61015;SDS011;46902;52.920;6.536;2023-05-13T12:02:50;6.90;;;2.35;;
61015;SDS011;46902;52.920;6.536;2023-05-13T12:05:16;5.88;;;2.30;;
61015;SDS011;46902;52.920;6.536;2023-05-13T12:07:41;6.15;;;2.40;;
61015;SDS011;46902;52.920;6.536;2023-05-13T12:10:07;6.03;;;1.90;;
61015;SDS011;46902;52.920;6.536;2023-05-13T12:12:34;8.98;;;2.40;;
61015;SDS011;46902;52.920;6.536;2023-05-13T12:15:14;5.65;;;1.95;;
61015;SDS011;46902;52.920;6.536;2023-05-13T12:17:41;5.70;;;2.25;;
61015;SDS011;46902;52.920;6.536;2023-05-13T12:22:34;3.65;;;1.73;;
61015;SDS011;46902;52.920;6.536;2023-05-13T12:28:19;7.32;;;2.17;;
61015;SDS011;46902;52.920;6.536;2023-05-13T12:30:53;8.25;;;2.40;;
61015;SDS011;46902;52.920;6.536;2023-05-13T12:33:29;8.85;;;2.38;;
61015;SDS011;46902;52.920;6.536;2023-05-13T12:41:26;5.07;;;2.28;;
61015;SDS011;46902;52.920;6.536;2023-05-13T12:44:01;5.65;;;2.17;;
61015;SDS011;46902;52.920;6.536;2023-05-13T12:46:29;6.85;;;2.53;;
61015;SDS011;46902;52.920;6.536;2023-05-13T12:48:56;7.78;;;2.05;;
61015;SDS011;46902;52.920;6.536;2023-05-13T12:51:25;3.65;;;2.00;;
61015;SDS011;46902;52.920;6.536;2023-05-13T12:53:52;6.50;;;1.65;;
61015;SDS011;46902;52.920;6.536;2023-05-13T12:56:21;5.45;;;1.80;;
61015;SDS011;46902;52.920;6.536;2023-05-13T12:58:48;7.63;;;1.92;;
61015;SDS011;46902;52.920;6.536;2023-05-13T13:01:15;6.75;;;2.17;;
61015;SDS011;46902;52.920;6.536;2023-05-13T13:03:41;9.13;;;1.83;;
61015;SDS011;46902;52.920;6.536;2023-05-13T13:06:07;5.68;;;1.90;;
61015;SDS011;46902;52.920;6.536;2023-05-13T13:08:34;6.18;;;1.90;;
61015;SDS011;46902;52.920;6.536;2023-05-13T13:11:00;7.30;;;1.80;;
61015;SDS011;46902;52.920;6.536;2023-05-13T13:13:26;6.97;;;2.03;;
61015;SDS011;46902;52.920;6.536;2023-05-13T13:15:52;5.57;;;1.92;;
61015;SDS011;46902;52.920;6.536;2023-05-13T13:18:18;11.30;;;2.35;;
61015;SDS011;46902;52.920;6.536;2023-05-13T13:20:43;9.23;;;1.90;;
61015;SDS011;46902;52.920;6.536;2023-05-13T13:23:09;6.53;;;1.95;;
61015;SDS011;46902;52.920;6.536;2023-05-13T13:25:35;9.40;;;2.05;;
61015;SDS011;46902;52.920;6.536;2023-05-13T13:28:00;8.30;;;1.75;;
61015;SDS011;46902;52.920;6.536;2023-05-13T13:30:26;7.88;;;1.92;;
61015;SDS011;46902;52.920;6.536;2023-05-13T13:32:54;7.47;;;1.73;;
61015;SDS011;46902;52.920;6.536;2023-05-13T13:35:20;9.27;;;2.00;;
61015;SDS011;46902;52.920;6.536;2023-05-13T13:37:46;10.52;;;1.95;;
61015;SDS011;46902;52.920;6.536;2023-05-13T13:40:11;8.23;;;1.60;;
61015;SDS011;46902;52.920;6.536;2023-05-13T13:42:37;3.90;;;1.75;;
61015;SDS011;46902;52.920;6.536;2023-05-13T13:45:03;4.53;;;1.83;;
61015;SDS011;46902;52.920;6.536;2023-05-13T13:47:29;5.25;;;1.52;;
61015;SDS011;46902;52.920;6.536;2023-05-13T13:49:55;4.68;;;1.67;;
61015;SDS011;46902;52.920;6.536;2023-05-13T13:52:20;5.20;;;1.70;;
61015;SDS011;46902;52.920;6.536;2023-05-13T13:54:47;7.90;;;2.10;;
61015;SDS011;46902;52.920;6.536;2023-05-13T13:57:13;5.03;;;1.67;;
61015;SDS011;46902;52.920;6.536;2023-05-13T13:59:39;5.40;;;1.90;;
61015;SDS011;46902;52.920;6.536;2023-05-13T14:02:05;11.95;;;2.30;;
61015;SDS011;46902;52.920;6.536;2023-05-13T14:04:31;6.25;;;1.80;;
61015;SDS011;46902;52.920;6.536;2023-05-13T14:06:57;7.63;;;1.98;;
61015;SDS011;46902;52.920;6.536;2023-05-13T14:09:23;7.63;;;1.85;;
61015;SDS011;46902;52.920;6.536;2023-05-13T14:11:49;6.15;;;2.15;;
61015;SDS011;46902;52.920;6.536;2023-05-13T14:14:15;6.13;;;1.77;;
61015;SDS011;46902;52.920;6.536;2023-05-13T14:16:40;12.52;;;2.10;;
61015;SDS011;46902;52.920;6.536;2023-05-13T14:19:06;5.65;;;2.00;;
61015;SDS011;46902;52.920;6.536;2023-05-13T14:21:32;7.20;;;1.80;;
61015;SDS011;46902;52.920;6.536;2023-05-13T14:23:58;6.43;;;1.70;;
61015;SDS011;46902;52.920;6.536;2023-05-13T14:26:24;3.20;;;1.50;;
61015;SDS011;46902;52.920;6.536;2023-05-13T14:28:50;5.88;;;1.83;;
61015;SDS011;46902;52.920;6.536;2023-05-13T14:31:15;5.47;;;1.70;;
61015;SDS011;46902;52.920;6.536;2023-05-13T14:33:41;3.85;;;1.90;;
61015;SDS011;46902;52.920;6.536;2023-05-13T14:36:07;5.43;;;1.75;;
61015;SDS011;46902;52.920;6.536;2023-05-13T14:38:35;6.63;;;2.15;;
61015;SDS011;46902;52.920;6.536;2023-05-13T14:41:01;5.25;;;1.88;;
61015;SDS011;46902;52.920;6.536;2023-05-13T14:43:26;7.18;;;1.90;;
61015;SDS011;46902;52.920;6.536;2023-05-13T14:45:52;7.63;;;2.05;;
61015;SDS011;46902;52.920;6.536;2023-05-13T14:48:18;10.65;;;2.10;;
61015;SDS011;46902;52.920;6.536;2023-05-13T14:50:44;9.95;;;2.00;;
61015;SDS011;46902;52.920;6.536;2023-05-13T14:53:10;5.22;;;1.80;;
61015;SDS011;46902;52.920;6.536;2023-05-13T14:55:36;6.07;;;2.00;;
61015;SDS011;46902;52.920;6.536;2023-05-13T14:58:03;6.82;;;1.80;;
61015;SDS011;46902;52.920;6.536;2023-05-13T15:00:29;7.50;;;2.00;;
61015;SDS011;46902;52.920;6.536;2023-05-13T15:02:56;3.53;;;1.80;;
61015;SDS011;46902;52.920;6.536;2023-05-13T15:05:21;3.45;;;1.90;;
61015;SDS011;46902;52.920;6.536;2023-05-13T15:07:47;3.60;;;1.83;;